sensor_id;sensor_type;location;lat;lon;timestamp;temperature;humidity
40287;DHT22;25998;46.604;13.610;2023-04-01T00:02:18;7.00;99.90
40287;DHT22;25998;46.604;13.610;2023-04-01T00:05:29;6.80;99.90
40287;DHT22;25998;46.604;13.610;2023-04-01T00:08:40;6.70;99.90
40287;DHT22;25998;46.604;13.610;2023-04-01T00:11:50;6.70;99.90
40287;DHT22;25998;46.604;13.610;2023-04-01T00:15:03;6.80;99.90
40287;DHT22;25998;46.604;13.610;2023-04-01T00:18:14;6.90;99.90
40287;DHT22;25998;46.604;13.610;2023-04-01T00:21:25;6.70;99.90
40287;DHT22;25998;46.604;13.610;2023-04-01T00:24:36;6.80;99.90
40287;DHT22;25998;46.604;13.610;2023-04-01T00:27:46;6.90;99.90
40287;DHT22;25998;46.604;13.610;2023-04-01T00:30:57;7.00;99.90
40287;DHT22;25998;46.604;13.610;2023-04-01T00:34:08;7.00;99.90
40287;DHT22;25998;46.604;13.610;2023-04-01T00:37:20;6.80;99.90
40287;DHT22;25998;46.604;13.610;2023-04-01T00:40:34;6.70;99.90
40287;DHT22;25998;46.604;13.610;2023-04-01T00:43:48;6.90;99.90
40287;DHT22;25998;46.604;13.610;2023-04-01T00:47:00;6.80;99.90
40287;DHT22;25998;46.604;13.610;2023-04-01T00:50:11;6.80;99.90
40287;DHT22;25998;46.604;13.610;2023-04-01T00:53:23;6.70;99.90
40287;DHT22;25998;46.604;13.610;2023-04-01T00:56:45;6.90;99.90
40287;DHT22;25998;46.604;13.610;2023-04-01T01:00:00;6.90;99.90
40287;DHT22;25998;46.604;13.610;2023-04-01T01:03:11;7.00;99.90
40287;DHT22;25998;46.604;13.610;2023-04-01T01:10:22;7.10;99.90
40287;DHT22;25998;46.604;13.610;2023-04-01T01:13:43;7.10;99.90
40287;DHT22;25998;46.604;13.610;2023-04-01T01:17:44;7.10;99.90
40287;DHT22;25998;46.604;13.610;2023-04-01T01:27:31;6.80;99.90
40287;DHT22;25998;46.604;13.610;2023-04-01T01:31:16;6.50;99.90
40287;DHT22;25998;46.604;13.610;2023-04-01T01:38:17;6.50;99.90
40287;DHT22;25998;46.604;13.610;2023-04-01T01:41:30;6.60;99.90
40287;DHT22;25998;46.604;13.610;2023-04-01T01:44:44;6.50;99.90
40287;DHT22;25998;46.604;13.610;2023-04-01T01:47:56;6.50;99.90
40287;DHT22;25998;46.604;13.610;2023-04-01T01:51:09;6.60;99.90
40287;DHT22;25998;46.604;13.610;2023-04-01T01:54:19;6.50;99.90
40287;DHT22;25998;46.604;13.610;2023-04-01T01:57:36;6.40;99.90
40287;DHT22;25998;46.604;13.610;2023-04-01T02:00:51;6.50;99.90
40287;DHT22;25998;46.604;13.610;2023-04-01T02:04:04;6.70;99.90
40287;DHT22;25998;46.604;13.610;2023-04-01T02:07:25;6.60;99.90
40287;DHT22;25998;46.604;13.610;2023-04-01T02:10:41;6.60;99.90
40287;DHT22;25998;46.604;13.610;2023-04-01T02:13:56;6.60;99.90
40287;DHT22;25998;46.604;13.610;2023-04-01T02:17:20;6.50;99.90
40287;DHT22;25998;46.604;13.610;2023-04-01T02:20:31;6.20;99.90
40287;DHT22;25998;46.604;13.610;2023-04-01T02:23:42;6.30;99.90
40287;DHT22;25998;46.604;13.610;2023-04-01T02:26:53;6.30;99.90
40287;DHT22;25998;46.604;13.610;2023-04-01T02:30:05;6.10;99.90
40287;DHT22;25998;46.604;13.610;2023-04-01T02:33:17;6.10;99.90
40287;DHT22;25998;46.604;13.610;2023-04-01T02:36:29;5.90;99.90
40287;DHT22;25998;46.604;13.610;2023-04-01T02:39:40;5.70;99.90
40287;DHT22;25998;46.604;13.610;2023-04-01T02:42:53;5.60;99.90
40287;DHT22;25998;46.604;13.610;2023-04-01T02:46:03;5.70;99.90
40287;DHT22;25998;46.604;13.610;2023-04-01T02:49:14;5.90;99.90
40287;DHT22;25998;46.604;13.610;2023-04-01T02:52:25;5.90;99.90
40287;DHT22;25998;46.604;13.610;2023-04-01T02:55:36;5.70;99.90
40287;DHT22;25998;46.604;13.610;2023-04-01T02:58:47;5.60;99.90
40287;DHT22;25998;46.604;13.610;2023-04-01T03:01:58;5.50;99.90
40287;DHT22;25998;46.604;13.610;2023-04-01T03:05:09;5.50;99.90
40287;DHT22;25998;46.604;13.610;2023-04-01T03:08:20;5.40;99.90
40287;DHT22;25998;46.604;13.610;2023-04-01T03:11:31;5.30;99.90
40287;DHT22;25998;46.604;13.610;2023-04-01T03:14:42;5.20;99.90
40287;DHT22;25998;46.604;13.610;2023-04-01T03:17:53;5.10;99.90
40287;DHT22;25998;46.604;13.610;2023-04-01T03:21:18;5.10;99.90
40287;DHT22;25998;46.604;13.610;2023-04-01T03:24:29;5.30;99.90
40287;DHT22;25998;46.604;13.610;2023-04-01T03:27:40;5.40;99.90
40287;DHT22;25998;46.604;13.610;2023-04-01T03:30:51;5.50;99.90
40287;DHT22;25998;46.604;13.610;2023-04-01T03:34:02;5.70;99.90
40287;DHT22;25998;46.604;13.610;2023-04-01T03:37:13;5.80;99.90
40287;DHT22;25998;46.604;13.610;2023-04-01T03:40:24;5.70;99.90
40287;DHT22;25998;46.604;13.610;2023-04-01T03:43:36;5.50;99.90
40287;DHT22;25998;46.604;13.610;2023-04-01T03:46:47;5.40;99.90
40287;DHT22;25998;46.604;13.610;2023-04-01T03:49:58;5.50;99.90
40287;DHT22;25998;46.604;13.610;2023-04-01T03:53:09;5.30;99.90
40287;DHT22;25998;46.604;13.610;2023-04-01T03:56:20;5.20;99.90
40287;DHT22;25998;46.604;13.610;2023-04-01T03:59:31;5.10;99.90
40287;DHT22;25998;46.604;13.610;2023-04-01T04:02:42;5.10;99.90
40287;DHT22;25998;46.604;13.610;2023-04-01T04:05:53;5.00;99.90
40287;DHT22;25998;46.604;13.610;2023-04-01T04:09:04;5.30;99.90
40287;DHT22;25998;46.604;13.610;2023-04-01T04:12:15;5.20;99.90
40287;DHT22;25998;46.604;13.610;2023-04-01T04:15:25;5.00;99.90
40287;DHT22;25998;46.604;13.610;2023-04-01T04:18:37;4.90;99.90
40287;DHT22;25998;46.604;13.610;2023-04-01T04:21:47;4.90;99.90
40287;DHT22;25998;46.604;13.610;2023-04-01T04:24:58;4.90;99.90
40287;DHT22;25998;46.604;13.610;2023-04-01T04:28:09;5.10;99.90
40287;DHT22;25998;46.604;13.610;2023-04-01T04:31:22;5.10;99.90
40287;DHT22;25998;46.604;13.610;2023-04-01T04:34:33;5.20;99.90
40287;DHT22;25998;46.604;13.610;2023-04-01T04:37:43;5.40;99.90
40287;DHT22;25998;46.604;13.610;2023-04-01T04:40:55;5.60;99.90
40287;DHT22;25998;46.604;13.610;2023-04-01T04:44:06;5.50;99.90
40287;DHT22;25998;46.604;13.610;2023-04-01T04:47:17;5.60;99.90
40287;DHT22;25998;46.604;13.610;2023-04-01T04:50:28;5.70;99.90
40287;DHT22;25998;46.604;13.610;2023-04-01T04:53:39;5.60;99.90
40287;DHT22;25998;46.604;13.610;2023-04-01T04:56:53;5.40;99.90
40287;DHT22;25998;46.604;13.610;2023-04-01T05:00:05;5.20;99.90
40287;DHT22;25998;46.604;13.610;2023-04-01T05:03:16;5.10;99.90
40287;DHT22;25998;46.604;13.610;2023-04-01T05:06:27;5.20;99.90
40287;DHT22;25998;46.604;13.610;2023-04-01T05:09:41;5.10;99.90
40287;DHT22;25998;46.604;13.610;2023-04-01T05:12:52;5.10;99.90
40287;DHT22;25998;46.604;13.610;2023-04-01T05:16:02;5.00;99.90
40287;DHT22;25998;46.604;13.610;2023-04-01T05:19:13;5.20;99.90
40287;DHT22;25998;46.604;13.610;2023-04-01T05:22:24;5.30;99.90
40287;DHT22;25998;46.604;13.610;2023-04-01T05:25:38;5.40;99.90
40287;DHT22;25998;46.604;13.610;2023-04-01T05:28:49;5.50;99.90
40287;DHT22;25998;46.604;13.610;2023-04-01T05:31:59;5.60;99.90
40287;DHT22;25998;46.604;13.610;2023-04-01T05:35:10;5.70;99.90
40287;DHT22;25998;46.604;13.610;2023-04-01T05:38:21;5.60;99.90
40287;DHT22;25998;46.604;13.610;2023-04-01T05:41:35;5.50;99.90
40287;DHT22;25998;46.604;13.610;2023-04-01T05:44:46;5.70;99.90
40287;DHT22;25998;46.604;13.610;2023-04-01T05:47:57;5.70;99.90
40287;DHT22;25998;46.604;13.610;2023-04-01T05:51:13;5.70;99.90
40287;DHT22;25998;46.604;13.610;2023-04-01T05:54:24;5.60;99.90
40287;DHT22;25998;46.604;13.610;2023-04-01T05:57:35;5.70;99.90
40287;DHT22;25998;46.604;13.610;2023-04-01T06:00:46;5.90;99.90
40287;DHT22;25998;46.604;13.610;2023-04-01T06:03:57;6.00;99.90
40287;DHT22;25998;46.604;13.610;2023-04-01T06:07:15;6.10;99.90
40287;DHT22;25998;46.604;13.610;2023-04-01T06:46:52;6.20;99.90
40287;DHT22;25998;46.604;13.610;2023-04-01T06:50:07;6.30;99.90
40287;DHT22;25998;46.604;13.610;2023-04-01T06:56:49;6.40;99.90
40287;DHT22;25998;46.604;13.610;2023-04-01T07:00:13;6.40;99.90
40287;DHT22;25998;46.604;13.610;2023-04-01T07:03:43;6.50;99.90
40287;DHT22;25998;46.604;13.610;2023-04-01T07:06:57;6.50;99.90
40287;DHT22;25998;46.604;13.610;2023-04-01T07:10:23;6.50;99.90
40287;DHT22;25998;46.604;13.610;2023-04-01T07:20:47;6.80;99.90
40287;DHT22;25998;46.604;13.610;2023-04-01T07:24:04;7.10;99.90
40287;DHT22;25998;46.604;13.610;2023-04-01T07:27:15;6.80;99.90
40287;DHT22;25998;46.604;13.610;2023-04-01T07:30:32;6.80;99.90
40287;DHT22;25998;46.604;13.610;2023-04-01T07:34:05;6.80;99.90
40287;DHT22;25998;46.604;13.610;2023-04-01T07:37:24;7.10;99.90
40287;DHT22;25998;46.604;13.610;2023-04-01T07:44:31;7.70;99.90
40287;DHT22;25998;46.604;13.610;2023-04-01T07:54:53;8.20;99.90
40287;DHT22;25998;46.604;13.610;2023-04-01T08:18:54;8.30;99.90
40287;DHT22;25998;46.604;13.610;2023-04-01T08:22:16;8.70;99.90
40287;DHT22;25998;46.604;13.610;2023-04-01T08:25:30;8.90;99.90
40287;DHT22;25998;46.604;13.610;2023-04-01T08:32:16;9.40;99.90
40287;DHT22;25998;46.604;13.610;2023-04-01T08:35:29;9.40;99.90
40287;DHT22;25998;46.604;13.610;2023-04-01T08:39:09;9.20;99.90
40287;DHT22;25998;46.604;13.610;2023-04-01T08:53:37;8.80;99.90
40287;DHT22;25998;46.604;13.610;2023-04-01T08:57:01;9.00;99.90
40287;DHT22;25998;46.604;13.610;2023-04-01T09:01:23;9.20;99.90
40287;DHT22;25998;46.604;13.610;2023-04-01T09:18:21;10.80;99.90
40287;DHT22;25998;46.604;13.610;2023-04-01T09:21:16;11.20;99.90
40287;DHT22;25998;46.604;13.610;2023-04-01T09:25:16;11.10;99.90
40287;DHT22;25998;46.604;13.610;2023-04-01T09:35:24;12.80;99.90
40287;DHT22;25998;46.604;13.610;2023-04-01T09:38:57;12.70;99.90
40287;DHT22;25998;46.604;13.610;2023-04-01T09:45:57;13.40;99.90
40287;DHT22;25998;46.604;13.610;2023-04-01T10:22:17;15.30;99.90
40287;DHT22;25998;46.604;13.610;2023-04-01T10:29:36;15.00;99.90
40287;DHT22;25998;46.604;13.610;2023-04-01T10:36:52;15.20;99.90
40287;DHT22;25998;46.604;13.610;2023-04-01T10:47:12;15.80;98.30
40287;DHT22;25998;46.604;13.610;2023-04-01T10:57:20;15.40;97.30
40287;DHT22;25998;46.604;13.610;2023-04-01T11:08:14;15.60;97.20
40287;DHT22;25998;46.604;13.610;2023-04-01T11:46:41;15.10;95.80
40287;DHT22;25998;46.604;13.610;2023-04-01T12:13:39;17.20;91.30
40287;DHT22;25998;46.604;13.610;2023-04-01T12:20:47;18.00;90.60
40287;DHT22;25998;46.604;13.610;2023-04-01T12:24:05;17.30;85.50
40287;DHT22;25998;46.604;13.610;2023-04-01T12:34:25;16.60;91.30
40287;DHT22;25998;46.604;13.610;2023-04-01T12:51:09;15.10;91.80
40287;DHT22;25998;46.604;13.610;2023-04-01T12:54:45;15.50;91.60
40287;DHT22;25998;46.604;13.610;2023-04-01T13:05:59;16.40;91.90
40287;DHT22;25998;46.604;13.610;2023-04-01T13:16:16;16.20;90.20
40287;DHT22;25998;46.604;13.610;2023-04-01T13:23:27;16.80;82.20
40287;DHT22;25998;46.604;13.610;2023-04-01T13:30:26;16.50;85.70
40287;DHT22;25998;46.604;13.610;2023-04-01T13:34:27;16.30;87.80
40287;DHT22;25998;46.604;13.610;2023-04-01T13:44:45;15.50;90.10
40287;DHT22;25998;46.604;13.610;2023-04-01T14:05:56;14.80;94.00
40287;DHT22;25998;46.604;13.610;2023-04-01T14:45:12;16.60;85.60
40287;DHT22;25998;46.604;13.610;2023-04-01T14:48:35;16.50;86.70
40287;DHT22;25998;46.604;13.610;2023-04-01T14:51:48;16.30;85.90
40287;DHT22;25998;46.604;13.610;2023-04-01T14:55:01;16.20;88.50
40287;DHT22;25998;46.604;13.610;2023-04-01T14:58:16;16.10;91.10
40287;DHT22;25998;46.604;13.610;2023-04-01T15:01:57;16.10;92.70
40287;DHT22;25998;46.604;13.610;2023-04-01T15:05:16;15.80;93.20
40287;DHT22;25998;46.604;13.610;2023-04-01T15:08:32;15.60;92.60
40287;DHT22;25998;46.604;13.610;2023-04-01T15:15:27;15.10;90.40
40287;DHT22;25998;46.604;13.610;2023-04-01T15:18:50;14.90;91.10
40287;DHT22;25998;46.604;13.610;2023-04-01T15:25:54;14.50;93.20
40287;DHT22;25998;46.604;13.610;2023-04-01T15:29:25;14.50;91.30
40287;DHT22;25998;46.604;13.610;2023-04-01T15:42:51;13.70;96.30
40287;DHT22;25998;46.604;13.610;2023-04-01T15:46:12;13.50;97.50
40287;DHT22;25998;46.604;13.610;2023-04-01T15:49:47;13.00;97.20
40287;DHT22;25998;46.604;13.610;2023-04-01T16:00:23;12.30;98.60
40287;DHT22;25998;46.604;13.610;2023-04-01T16:14:21;12.00;99.30
40287;DHT22;25998;46.604;13.610;2023-04-01T16:28:39;12.00;99.90
40287;DHT22;25998;46.604;13.610;2023-04-01T16:39:15;11.90;99.90
40287;DHT22;25998;46.604;13.610;2023-04-01T16:42:41;11.90;99.90
40287;DHT22;25998;46.604;13.610;2023-04-01T16:46:27;11.70;99.90
40287;DHT22;25998;46.604;13.610;2023-04-01T16:49:50;11.60;99.90
40287;DHT22;25998;46.604;13.610;2023-04-01T16:53:10;11.50;99.90
40287;DHT22;25998;46.604;13.610;2023-04-01T16:56:36;11.20;99.90
40287;DHT22;25998;46.604;13.610;2023-04-01T16:59:57;11.10;99.90
40287;DHT22;25998;46.604;13.610;2023-04-01T17:03:18;11.20;99.90
40287;DHT22;25998;46.604;13.610;2023-04-01T17:23:50;10.50;99.90
40287;DHT22;25998;46.604;13.610;2023-04-01T17:30:32;10.30;99.90
40287;DHT22;25998;46.604;13.610;2023-04-01T17:37:21;10.20;99.90
40287;DHT22;25998;46.604;13.610;2023-04-01T17:47:28;10.00;99.90
40287;DHT22;25998;46.604;13.610;2023-04-01T17:54:50;10.00;99.90
40287;DHT22;25998;46.604;13.610;2023-04-01T18:02:13;9.90;99.90
40287;DHT22;25998;46.604;13.610;2023-04-01T18:05:35;9.80;99.90
40287;DHT22;25998;46.604;13.610;2023-04-01T18:25:53;9.70;99.90
40287;DHT22;25998;46.604;13.610;2023-04-01T18:29:17;9.70;99.90
40287;DHT22;25998;46.604;13.610;2023-04-01T18:32:35;9.70;99.90
40287;DHT22;25998;46.604;13.610;2023-04-01T18:36:02;9.70;99.90
40287;DHT22;25998;46.604;13.610;2023-04-01T18:39:38;9.60;99.90
40287;DHT22;25998;46.604;13.610;2023-04-01T18:43:16;9.70;99.90
40287;DHT22;25998;46.604;13.610;2023-04-01T18:46:38;9.80;99.90
40287;DHT22;25998;46.604;13.610;2023-04-01T18:50:24;9.90;99.90
40287;DHT22;25998;46.604;13.610;2023-04-01T18:53:45;9.80;99.90
40287;DHT22;25998;46.604;13.610;2023-04-01T19:00:27;9.80;99.90
40287;DHT22;25998;46.604;13.610;2023-04-01T19:15:20;10.20;99.90
40287;DHT22;25998;46.604;13.610;2023-04-01T19:22:03;10.00;99.90
40287;DHT22;25998;46.604;13.610;2023-04-01T19:26:09;10.10;99.90
40287;DHT22;25998;46.604;13.610;2023-04-01T19:29:24;10.00;99.90
40287;DHT22;25998;46.604;13.610;2023-04-01T19:43:33;9.60;99.90
40287;DHT22;25998;46.604;13.610;2023-04-01T19:47:02;9.50;99.90
40287;DHT22;25998;46.604;13.610;2023-04-01T19:50:45;9.60;99.90
40287;DHT22;25998;46.604;13.610;2023-04-01T19:54:04;9.60;99.90
40287;DHT22;25998;46.604;13.610;2023-04-01T19:57:30;9.40;99.90
40287;DHT22;25998;46.604;13.610;2023-04-01T20:00:50;9.30;99.90
40287;DHT22;25998;46.604;13.610;2023-04-01T20:04:08;9.20;99.90
40287;DHT22;25998;46.604;13.610;2023-04-01T20:07:30;9.30;99.90
40287;DHT22;25998;46.604;13.610;2023-04-01T20:11:03;9.40;99.90
40287;DHT22;25998;46.604;13.610;2023-04-01T20:24:43;9.20;99.90
40287;DHT22;25998;46.604;13.610;2023-04-01T20:31:43;9.40;99.90
40287;DHT22;25998;46.604;13.610;2023-04-01T20:35:00;9.10;99.90
40287;DHT22;25998;46.604;13.610;2023-04-01T20:38:30;9.30;99.90
40287;DHT22;25998;46.604;13.610;2023-04-01T20:55:29;9.30;99.90
40287;DHT22;25998;46.604;13.610;2023-04-01T21:02:20;9.30;99.90
40287;DHT22;25998;46.604;13.610;2023-04-01T21:05:44;9.20;99.90
40287;DHT22;25998;46.604;13.610;2023-04-01T21:12:46;9.10;99.90
40287;DHT22;25998;46.604;13.610;2023-04-01T21:30:05;9.10;99.90
40287;DHT22;25998;46.604;13.610;2023-04-01T21:40:47;9.10;99.90
40287;DHT22;25998;46.604;13.610;2023-04-01T21:47:48;8.60;99.90
40287;DHT22;25998;46.604;13.610;2023-04-01T21:55:30;8.50;99.90
40287;DHT22;25998;46.604;13.610;2023-04-01T22:09:13;8.40;99.90
40287;DHT22;25998;46.604;13.610;2023-04-01T22:12:46;8.40;99.90
40287;DHT22;25998;46.604;13.610;2023-04-01T22:16:23;8.60;99.90
40287;DHT22;25998;46.604;13.610;2023-04-01T22:26:51;8.70;99.90
40287;DHT22;25998;46.604;13.610;2023-04-01T22:30:22;8.50;99.90
40287;DHT22;25998;46.604;13.610;2023-04-01T22:33:52;8.20;99.90
40287;DHT22;25998;46.604;13.610;2023-04-01T22:37:24;8.00;99.90
40287;DHT22;25998;46.604;13.610;2023-04-01T22:40:53;8.00;99.90
40287;DHT22;25998;46.604;13.610;2023-04-01T22:44:14;7.90;99.90
40287;DHT22;25998;46.604;13.610;2023-04-01T22:51:03;7.70;99.90
40287;DHT22;25998;46.604;13.610;2023-04-01T22:54:19;7.50;99.90
40287;DHT22;25998;46.604;13.610;2023-04-01T23:01:07;7.40;99.90
40287;DHT22;25998;46.604;13.610;2023-04-01T23:04:31;7.80;99.90
40287;DHT22;25998;46.604;13.610;2023-04-01T23:11:47;7.50;99.90
40287;DHT22;25998;46.604;13.610;2023-04-01T23:15:03;7.50;99.90
40287;DHT22;25998;46.604;13.610;2023-04-01T23:18:25;7.70;99.90
40287;DHT22;25998;46.604;13.610;2023-04-01T23:21:44;7.70;99.90
40287;DHT22;25998;46.604;13.610;2023-04-01T23:25:29;7.40;99.90
40287;DHT22;25998;46.604;13.610;2023-04-01T23:28:45;7.10;99.90
40287;DHT22;25998;46.604;13.610;2023-04-01T23:35:15;7.00;99.90
40287;DHT22;25998;46.604;13.610;2023-04-01T23:38:27;7.00;99.90
40287;DHT22;25998;46.604;13.610;2023-04-01T23:41:38;7.00;99.90
40287;DHT22;25998;46.604;13.610;2023-04-01T23:44:54;7.00;99.90
40287;DHT22;25998;46.604;13.610;2023-04-01T23:48:07;7.20;99.90
40287;DHT22;25998;46.604;13.610;2023-04-01T23:51:24;7.20;99.90
40287;DHT22;25998;46.604;13.610;2023-04-01T23:54:53;7.10;99.90
40287;DHT22;25998;46.604;13.610;2023-04-01T23:58:25;7.20;99.90
